Time;durP1;ratioP1;P1;durP2;ratioP2;P2;SDS_P1;SDS_P2;PMS_P1;PMS_P2;Temp;Humidity;BMP_temperature;BMP_pressure;BME280_temperature;BME280_humidity;BME280_pressure;Samples;Min_cycle;Max_cycle;Signal;HPM_P1;HPM_P2
2021/09/26 00:02:01;;;;;;;8.60;3.75;;;14.60;99.90;;;;;;5075125;28;20029;-68
2021/09/26 00:04:29;;;;;;;8.52;4.00;;;14.50;99.90;;;;;;5074985;28;20358;-67
2021/09/26 00:06:56;;;;;;;8.82;4.78;;;14.40;99.90;;;;;;5074863;28;20025;-67
2021/09/26 00:09:23;;;;;;;12.65;4.47;;;14.40;99.90;;;;;;5074945;28;20020;-68
2021/09/26 00:11:51;;;;;;;5.63;3.80;;;14.50;99.90;;;;;;5074826;28;20376;-68
2021/09/26 00:14:18;;;;;;;8.40;3.65;;;14.50;99.90;;;;;;5074784;28;20503;-68
2021/09/26 00:16:45;;;;;;;4.75;3.25;;;14.50;99.90;;;;;;5074719;28;20040;-69
2021/09/26 00:19:13;;;;;;;6.30;3.83;;;14.50;99.90;;;;;;5073380;28;20023;-67
2021/09/26 00:21:40;;;;;;;7.88;3.80;;;14.40;99.90;;;;;;5074664;28;20066;-67
2021/09/26 00:24:07;;;;;;;9.55;4.13;;;14.50;99.90;;;;;;5073496;28;20407;-69
2021/09/26 00:26:35;;;;;;;12.50;5.15;;;14.60;99.90;;;;;;5074695;28;20028;-68
2021/09/26 00:29:02;;;;;;;7.60;4.57;;;14.60;99.90;;;;;;5073383;28;20028;-67
2021/09/26 00:31:30;;;;;;;10.80;5.03;;;14.40;99.90;;;;;;5074437;28;20028;-68
2021/09/26 00:33:57;;;;;;;10.50;4.68;;;14.50;99.90;;;;;;5074446;28;20040;-68
2021/09/26 00:36:24;;;;;;;7.60;4.57;;;14.40;99.90;;;;;;5073105;28;20028;-68
2021/09/26 00:38:52;;;;;;;8.23;4.70;;;14.40;99.90;;;;;;5074445;28;20025;-68
2021/09/26 00:41:19;;;;;;;8.90;5.10;;;14.40;99.90;;;;;;5074373;28;20035;-68
2021/09/26 00:43:47;;;;;;;9.25;5.13;;;14.40;99.90;;;;;;5073058;28;20367;-70
2021/09/26 00:46:14;;;;;;;7.80;4.70;;;14.20;99.90;;;;;;5074277;28;20028;-68
2021/09/26 00:48:42;;;;;;;8.57;4.90;;;14.10;99.90;;;;;;5074083;28;20096;-68
2021/09/26 00:51:12;;;;;;;8.88;5.60;;;14.00;99.90;;;;;;5073121;28;20358;-68
2021/09/26 00:53:42;;;;;;;11.13;5.47;;;14.00;99.90;;;;;;5072808;28;20035;-68
2021/09/26 00:56:13;;;;;;;7.70;4.82;;;13.90;99.90;;;;;;5074136;28;20034;-68
2021/09/26 00:58:42;;;;;;;7.35;4.20;;;13.90;99.90;;;;;;5074075;28;20024;-68
2021/09/26 01:01:10;;;;;;;9.48;4.28;;;14.00;99.90;;;;;;5073937;28;20035;-68
2021/09/26 01:03:37;;;;;;;10.77;3.88;;;14.20;99.90;;;;;;5072261;28;20385;-68
2021/09/26 01:06:33;;;;;;;11.55;4.00;;;14.30;99.90;;;;;;5073932;28;20020;-68
2021/09/26 01:09:28;;;;;;;7.75;3.42;;;14.40;99.90;;;;;;5036837;28;20418;-68
2021/09/26 01:12:17;;;;;;;6.05;3.10;;;14.50;99.90;;;;;;5073676;28;20053;-67
2021/09/26 01:15:03;;;;;;;8.52;3.60;;;14.60;99.90;;;;;;5073688;28;20024;-67
2021/09/26 01:17:39;;;;;;;6.35;3.13;;;14.80;99.90;;;;;;5072408;28;20035;-69
2021/09/26 01:20:36;;;;;;;7.55;3.00;;;14.80;99.90;;;;;;5073575;28;20515;-68
2021/09/26 01:23:06;;;;;;;8.73;2.95;;;15.00;99.90;;;;;;5073566;28;20017;-68
2021/09/26 01:25:36;;;;;;;7.10;3.03;;;15.00;99.90;;;;;;5073562;28;20507;-67
2021/09/26 01:28:18;;;;;;;5.65;3.08;;;15.10;99.90;;;;;;5073433;28;20012;-67
2021/09/26 01:30:52;;;;;;;9.07;2.97;;;15.10;99.90;;;;;;5073435;28;20574;-68
2021/09/26 01:33:28;;;;;;;5.53;2.90;;;15.10;99.60;;;;;;5072075;28;20025;-67
2021/09/26 01:36:07;;;;;;;9.70;3.03;;;15.20;99.90;;;;;;5073416;28;20017;-67
2021/09/26 01:38:45;;;;;;;8.30;3.22;;;15.30;99.50;;;;;;5073319;28;20020;-68
2021/09/26 01:41:59;;;;;;;8.57;3.85;;;15.40;99.60;;;;;;5073707;28;20539;-69
2021/09/26 01:44:46;;;;;;;7.68;3.75;;;15.70;99.90;;;;;;5073223;28;20189;-67
2021/09/26 01:47:19;;;;;;;4.95;2.70;;;15.50;99.90;;;;;;5073222;28;20021;-69
2021/09/26 01:49:52;;;;;;;7.25;2.75;;;15.60;99.20;;;;;;5073228;28;20112;-67
2021/09/26 01:52:30;;;;;;;7.68;3.40;;;15.50;99.10;;;;;;5073125;28;20032;-68
2021/09/26 01:54:59;;;;;;;8.10;3.00;;;15.60;99.00;;;;;;5073136;28;20016;-67
2021/09/26 01:57:27;;;;;;;7.45;3.50;;;15.60;98.70;;;;;;5073198;28;20359;-69
2021/09/26 02:00:03;;;;;;;5.63;2.75;;;15.40;99.00;;;;;;5071753;28;20126;-68
2021/09/26 02:02:32;;;;;;;7.40;3.17;;;15.50;99.30;;;;;;5071421;28;20017;-68
2021/09/26 02:05:03;;;;;;;6.88;3.28;;;15.60;99.30;;;;;;5073247;28;20020;-68
2021/09/26 02:07:34;;;;;;;7.50;3.50;;;15.70;99.00;;;;;;5071703;28;20070;-70
2021/09/26 02:10:02;;;;;;;9.25;3.00;;;15.90;98.70;;;;;;5073105;28;20020;-70
2021/09/26 02:12:31;;;;;;;7.03;2.70;;;16.10;98.80;;;;;;5072915;28;20023;-70
2021/09/26 02:14:59;;;;;;;9.45;2.70;;;16.00;98.40;;;;;;5072779;28;20025;-69
2021/09/26 02:17:29;;;;;;;5.25;3.33;;;16.10;98.60;;;;;;5072903;28;20052;-69
2021/09/26 02:20:02;;;;;;;10.07;2.75;;;16.00;98.30;;;;;;5073227;28;20066;-69
2021/09/26 02:22:31;;;;;;;9.02;3.30;;;16.10;98.00;;;;;;5073041;28;20093;-69
2021/09/26 02:25:05;;;;;;;4.95;3.00;;;16.10;97.90;;;;;;5072868;28;20028;-69
2021/09/26 02:27:33;;;;;;;6.40;3.10;;;16.00;98.40;;;;;;5072754;28;20039;-69
2021/09/26 02:30:01;;;;;;;7.45;2.75;;;15.80;97.60;;;;;;5071308;28;20481;-69
2021/09/26 02:32:29;;;;;;;5.63;2.70;;;15.80;98.30;;;;;;5071376;28;20052;-69
2021/09/26 02:34:56;;;;;;;5.65;2.80;;;16.00;98.50;;;;;;5071512;28;20036;-68
2021/09/26 02:37:23;;;;;;;5.22;2.55;;;16.10;97.70;;;;;;5072628;28;20060;-69
2021/09/26 02:39:52;;;;;;;6.28;2.55;;;16.10;97.90;;;;;;5072861;28;20100;-67
2021/09/26 02:42:19;;;;;;;7.57;2.88;;;16.30;97.80;;;;;;5073055;28;20020;-71
2021/09/26 02:45:00;;;;;;;5.38;3.45;;;16.30;98.90;;;;;;5072730;28;20029;-69
2021/09/26 02:47:27;;;;;;;;;;;16.40;96.80;;;;;;5071728;28;20024;-70
2021/09/26 02:49:55;;;;;;;5.72;2.95;;;16.50;97.40;;;;;;5072464;28;19912;-70
2021/09/26 02:52:24;;;;;;;6.20;3.08;;;16.70;97.70;;;;;;5071269;28;20051;-70
2021/09/26 02:54:52;;;;;;;7.90;3.10;;;17.20;98.10;;;;;;5072652;28;20013;-69
2021/09/26 02:57:19;;;;;;;9.10;3.17;;;17.50;97.60;;;;;;5072460;28;20032;-70
2021/09/26 02:59:47;;;;;;;4.43;2.58;;;17.50;96.50;;;;;;5072519;28;20028;-69
2021/09/26 03:02:14;;;;;;;8.00;3.38;;;17.40;97.10;;;;;;5072452;28;20429;-69
2021/09/26 03:04:43;;;;;;;6.28;3.17;;;17.00;96.60;;;;;;5072381;28;20503;-70
2021/09/26 03:07:13;;;;;;;8.02;3.22;;;17.00;97.20;;;;;;5072396;28;20389;-69
2021/09/26 03:09:41;;;;;;;5.35;3.25;;;17.10;97.30;;;;;;5072536;28;20021;-69
2021/09/26 03:12:17;;;;;;;7.03;2.95;;;17.00;97.00;;;;;;5072281;28;20055;-69
2021/09/26 03:14:44;;;;;;;5.38;2.97;;;17.20;97.50;;;;;;5073099;28;20025;-69
2021/09/26 03:17:12;;;;;;;7.88;3.10;;;17.10;96.70;;;;;;5075818;28;20036;-69
2021/09/26 03:19:39;;;;;;;6.90;3.15;;;17.00;96.70;;;;;;5075932;28;20028;-68
2021/09/26 03:22:07;;;;;;;6.20;2.75;;;17.00;96.70;;;;;;5075935;28;20017;-69
2021/09/26 03:24:36;;;;;;;8.88;3.55;;;16.90;96.60;;;;;;5075835;28;20468;-70
2021/09/26 03:27:08;;;;;;;7.60;2.90;;;16.80;96.50;;;;;;5075724;28;20073;-69
2021/09/26 03:29:38;;;;;;;6.45;2.95;;;17.50;97.60;;;;;;5074469;28;20024;-69
2021/09/26 03:32:05;;;;;;;8.73;3.00;;;18.00;96.10;;;;;;5075600;28;20499;-70
2021/09/26 03:34:33;;;;;;;8.77;2.55;;;18.00;96.40;;;;;;5075805;28;20537;-70
2021/09/26 03:37:00;;;;;;;6.72;2.75;;;17.60;95.40;;;;;;5075491;28;20028;-69
2021/09/26 03:39:27;;;;;;;5.97;3.05;;;17.40;96.20;;;;;;5074285;28;20032;-69
2021/09/26 03:41:55;;;;;;;7.40;2.70;;;17.00;96.70;;;;;;5075604;28;20479;-69
2021/09/26 03:44:22;;;;;;;6.05;2.80;;;17.10;96.60;;;;;;5075457;28;20070;-69
2021/09/26 03:46:50;;;;;;;7.82;2.95;;;17.10;96.00;;;;;;5075436;28;20024;-69
2021/09/26 03:49:18;;;;;;;6.03;3.30;;;17.10;96.30;;;;;;5075371;28;20031;-70
2021/09/26 03:51:48;;;;;;;6.30;3.10;;;17.30;96.50;;;;;;5075215;28;20078;-69
2021/09/26 03:54:17;;;;;;;10.63;3.10;;;17.40;96.30;;;;;;5075385;28;20508;-71
2021/09/26 03:56:45;;;;;;;4.82;3.00;;;17.20;96.00;;;;;;5075638;28;20362;-70
2021/09/26 03:59:13;;;;;;;8.30;4.05;;;17.10;96.10;;;;;;5075725;28;20032;-70
2021/09/26 04:01:41;;;;;;;8.15;3.25;;;17.00;96.70;;;;;;5075371;28;20107;-70
2021/09/26 04:04:09;;;;;;;13.85;3.40;;;17.00;96.60;;;;;;5074985;28;20074;-69
2021/09/26 04:06:37;;;;;;;8.20;3.15;;;16.70;95.90;;;;;;5075244;28;20025;-70
2021/09/26 04:09:06;;;;;;;7.28;3.00;;;16.60;96.80;;;;;;5075136;28;20443;-70
2021/09/26 04:11:35;;;;;;;7.93;3.42;;;16.60;96.60;;;;;;5075058;28;20032;-69
2021/09/26 04:14:04;;;;;;;8.25;3.10;;;16.90;96.80;;;;;;5073669;28;20021;-69
2021/09/26 04:16:32;;;;;;;7.07;3.70;;;17.10;97.20;;;;;;5074659;28;20066;-70
2021/09/26 04:19:00;;;;;;;7.43;3.00;;;17.20;96.40;;;;;;5074780;28;20088;-70
2021/09/26 04:21:28;;;;;;;6.30;3.10;;;17.00;96.10;;;;;;5073447;28;20021;-70
2021/09/26 04:23:55;;;;;;;5.07;2.70;;;16.90;96.10;;;;;;5073419;28;20036;-71
2021/09/26 04:26:23;;;;;;;7.40;2.63;;;16.90;96.50;;;;;;5073219;28;20024;-73
2021/09/26 04:28:51;;;;;;;5.10;3.00;;;17.00;96.30;;;;;;5074538;28;20028;-72
2021/09/26 04:31:18;;;;;;;7.20;3.10;;;17.10;96.40;;;;;;5073454;28;20066;-72
2021/09/26 04:33:45;;;;;;;5.60;2.90;;;17.10;96.60;;;;;;5074505;28;20023;-70
2021/09/26 04:36:13;;;;;;;6.97;3.40;;;17.30;96.10;;;;;;5074506;28;20381;-70
2021/09/26 04:38:41;;;;;;;9.07;3.25;;;17.30;96.00;;;;;;5073087;28;20020;-69
2021/09/26 04:41:08;;;;;;;7.70;3.28;;;17.20;95.60;;;;;;5073037;28;20032;-71
2021/09/26 04:43:35;;;;;;;11.32;3.60;;;17.10;96.50;;;;;;5074343;28;20103;-72
2021/09/26 04:46:03;;;;;;;4.43;2.67;;;17.20;96.20;;;;;;5074350;28;20052;-70
2021/09/26 04:48:31;;;;;;;10.27;3.00;;;17.40;95.70;;;;;;5072942;28;20444;-70
2021/09/26 04:50:58;;;;;;;5.72;3.15;;;17.60;95.40;;;;;;5074129;28;20036;-70
2021/09/26 04:53:25;;;;;;;6.60;3.20;;;17.50;95.30;;;;;;5072780;28;20066;-70
2021/09/26 04:55:53;;;;;;;4.47;3.20;;;17.30;95.80;;;;;;5073940;28;20372;-71
2021/09/26 04:58:20;;;;;;;9.60;3.55;;;17.20;96.50;;;;;;5073843;28;20071;-70
2021/09/26 05:00:48;;;;;;;6.68;3.13;;;17.30;95.50;;;;;;5073859;28;20362;-70
2021/09/26 05:03:15;;;;;;;6.88;2.72;;;17.30;95.30;;;;;;5072350;28;20119;-70
2021/09/26 05:05:43;;;;;;;6.85;2.60;;;17.30;95.40;;;;;;5072391;28;20035;-70
2021/09/26 05:08:10;;;;;;;9.25;3.40;;;17.30;96.10;;;;;;5073680;28;20507;-70
2021/09/26 05:10:37;;;;;;;6.00;2.67;;;17.10;95.90;;;;;;5072483;28;20021;-70
2021/09/26 05:13:05;;;;;;;7.57;3.28;;;17.10;97.00;;;;;;5073787;28;20429;-73
2021/09/26 05:15:32;;;;;;;8.00;3.20;;;16.90;96.50;;;;;;5073510;28;20107;-71
2021/09/26 05:18:00;;;;;;;6.68;2.80;;;16.60;97.10;;;;;;5073574;28;20073;-71
2021/09/26 05:20:28;;;;;;;6.22;2.67;;;16.40;97.00;;;;;;5073477;28;20024;-71
2021/09/26 05:22:58;;;;;;;7.30;3.13;;;16.40;97.20;;;;;;5073891;28;20070;-72
2021/09/26 05:25:27;;;;;;;7.20;2.92;;;16.60;97.30;;;;;;5073521;28;20099;-72
2021/09/26 05:27:54;;;;;;;7.72;3.00;;;16.50;96.80;;;;;;5073599;28;20492;-72
2021/09/26 05:30:22;;;;;;;7.80;3.40;;;16.40;97.10;;;;;;5073384;28;20020;-71
2021/09/26 05:32:49;;;;;;;8.10;2.70;;;16.20;97.50;;;;;;5073354;28;20066;-72
2021/09/26 05:35:16;;;;;;;7.93;3.53;;;16.20;97.90;;;;;;5073444;28;20531;-71
2021/09/26 05:37:44;;;;;;;6.43;3.30;;;16.40;98.30;;;;;;5072944;28;20031;-72
2021/09/26 05:40:12;;;;;;;6.43;3.30;;;16.30;97.80;;;;;;5073288;28;20063;-72
2021/09/26 05:42:39;;;;;;;4.90;3.30;;;16.30;98.50;;;;;;5073176;28;20031;-71
2021/09/26 05:45:07;;;;;;;7.95;3.80;;;16.30;98.60;;;;;;5071860;28;20111;-72
2021/09/26 05:47:34;;;;;;;10.07;4.45;;;16.50;98.20;;;;;;5073169;28;20449;-70
2021/09/26 05:50:02;;;;;;;6.03;3.40;;;16.60;98.10;;;;;;5071512;28;20116;-71
2021/09/26 05:52:29;;;;;;;6.55;3.42;;;16.80;98.30;;;;;;5072886;28;20024;-73
2021/09/26 05:54:57;;;;;;;7.72;3.15;;;16.90;97.50;;;;;;5072976;28;20016;-72
2021/09/26 05:57:24;;;;;;;7.13;2.90;;;17.00;97.70;;;;;;5071771;28;20097;-72
2021/09/26 05:59:51;;;;;;;6.25;3.22;;;16.90;96.70;;;;;;5072828;28;20017;-72
2021/09/26 06:02:26;;;;;;;4.75;3.00;;;16.80;97.20;;;;;;5071591;28;20474;-72
2021/09/26 06:04:54;;;;;;;5.25;2.63;;;16.60;97.30;;;;;;5072733;28;20028;-71
2021/09/26 06:07:22;;;;;;;6.25;3.28;;;16.40;97.90;;;;;;5071432;28;20028;-72
2021/09/26 06:09:49;;;;;;;9.05;3.28;;;16.40;97.80;;;;;;5072871;28;20029;-71
2021/09/26 06:12:16;;;;;;;9.88;3.20;;;16.10;97.80;;;;;;5071341;28;20473;-72
2021/09/26 06:14:44;;;;;;;7.50;3.13;;;16.20;97.90;;;;;;5072707;28;20046;-71
2021/09/26 06:17:11;;;;;;;6.57;3.08;;;15.90;98.50;;;;;;5071319;28;20507;-72
2021/09/26 06:19:38;;;;;;;6.90;3.42;;;15.90;98.80;;;;;;5072578;28;20028;-72
2021/09/26 06:22:06;;;;;;;6.05;2.75;;;15.80;99.00;;;;;;5071378;28;20138;-72
2021/09/26 06:24:33;;;;;;;7.47;3.05;;;15.70;99.10;;;;;;5072604;28;20020;-72
2021/09/26 06:27:00;;;;;;;7.15;3.08;;;15.70;99.10;;;;;;5072532;28;20027;-71
2021/09/26 06:29:28;;;;;;;7.00;3.22;;;15.50;98.90;;;;;;5072591;28;20029;-72
2021/09/26 06:31:55;;;;;;;5.60;3.00;;;15.50;99.90;;;;;;5072593;28;20032;-72
2021/09/26 06:34:22;;;;;;;9.88;3.40;;;15.50;99.80;;;;;;5071138;28;20031;-72
2021/09/26 06:36:50;;;;;;;9.75;3.00;;;15.60;99.90;;;;;;5072508;28;20031;-72
2021/09/26 06:39:17;;;;;;;5.43;3.22;;;15.60;99.70;;;;;;5072585;28;20024;-72
2021/09/26 06:41:44;;;;;;;7.35;3.30;;;15.50;99.70;;;;;;5071259;28;20044;-73
2021/09/26 06:44:13;;;;;;;6.63;3.03;;;15.60;99.90;;;;;;5072532;28;20070;-71
2021/09/26 06:46:41;;;;;;;8.32;3.38;;;15.60;99.30;;;;;;5071148;28;20481;-69
2021/09/26 06:49:08;;;;;;;4.97;2.67;;;15.60;99.00;;;;;;5073848;28;20052;-70
2021/09/26 06:51:36;;;;;;;8.02;3.60;;;16.00;99.50;;;;;;5074845;28;20021;-71
2021/09/26 06:54:03;;;;;;;7.68;3.30;;;15.70;99.40;;;;;;5076241;28;20017;-71
2021/09/26 06:56:31;;;;;;;7.45;3.22;;;15.70;99.40;;;;;;5074850;28;20020;-69
2021/09/26 06:58:58;;;;;;;3.60;2.60;;;15.60;99.20;;;;;;5076124;28;20087;-70
2021/09/26 07:01:25;;;;;;;5.93;2.90;;;15.50;99.20;;;;;;5074683;28;20556;-69
2021/09/26 07:03:53;;;;;;;5.95;2.65;;;15.50;99.20;;;;;;5076292;28;20063;-73
2021/09/26 07:06:20;;;;;;;6.85;2.63;;;15.50;99.90;;;;;;5074865;28;20031;-74
2021/09/26 07:08:47;;;;;;;6.18;3.60;;;15.20;99.90;;;;;;5076104;28;20499;-73
2021/09/26 07:11:15;;;;;;;4.07;3.58;;;14.90;99.90;;;;;;5074561;28;20052;-73
2021/09/26 07:13:42;;;;;;;7.82;3.92;;;14.70;99.90;;;;;;5075959;28;20017;-73
2021/09/26 07:16:09;;;;;;;8.43;4.40;;;14.40;99.90;;;;;;5074315;28;20051;-75
2021/09/26 07:18:37;;;;;;;7.20;4.00;;;14.30;99.90;;;;;;5074460;28;20025;-73
2021/09/26 07:21:04;;;;;;;9.00;4.57;;;14.20;99.90;;;;;;5076057;28;20496;-73
2021/09/26 07:23:32;;;;;;;8.13;4.22;;;14.10;99.90;;;;;;5074382;28;20032;-74
2021/09/26 07:26:00;;;;;;;8.95;4.55;;;14.00;99.90;;;;;;5074266;28;20396;-74
2021/09/26 07:28:27;;;;;;;6.18;4.55;;;14.00;99.90;;;;;;5075557;28;20075;-74
2021/09/26 07:30:54;;;;;;;4.40;3.55;;;14.00;99.90;;;;;;5075454;28;20389;-74
2021/09/26 07:33:22;;;;;;;4.88;4.10;;;13.90;99.90;;;;;;5075668;28;20020;-74
2021/09/26 07:35:49;;;;;;;7.28;4.95;;;13.80;99.90;;;;;;5074211;28;20095;-73
2021/09/26 07:38:17;;;;;;;8.02;3.95;;;13.80;99.90;;;;;;5075698;28;20066;-74
2021/09/26 07:40:45;;;;;;;8.60;4.20;;;13.80;99.90;;;;;;5075371;28;20028;-75
2021/09/26 07:43:12;;;;;;;9.07;4.32;;;13.80;99.90;;;;;;5075419;28;20016;-75
2021/09/26 07:45:40;;;;;;;4.75;3.88;;;13.80;99.90;;;;;;5074026;28;20089;-74
2021/09/26 07:48:07;;;;;;;6.95;4.07;;;13.80;99.90;;;;;;5075354;28;20428;-74
2021/09/26 07:50:34;;;;;;;8.45;4.03;;;13.80;99.90;;;;;;5073890;28;20079;-75
2021/09/26 07:53:02;;;;;;;5.20;4.22;;;13.70;99.90;;;;;;5075306;28;20432;-75
2021/09/26 07:55:32;;;;;;;5.38;4.30;;;13.70;99.90;;;;;;5073927;28;20026;-74
2021/09/26 07:58:00;;;;;;;5.40;3.78;;;14.10;99.90;;;;;;5073948;28;20089;-74
2021/09/26 08:00:27;;;;;;;5.82;4.00;;;13.70;99.90;;;;;;5074560;28;20131;-74
2021/09/26 08:02:54;;;;;;;6.93;3.55;;;13.70;99.90;;;;;;5075182;28;20020;-74
2021/09/26 08:05:22;;;;;;;7.13;3.40;;;13.70;99.90;;;;;;5073626;28;20424;-73
2021/09/26 08:07:49;;;;;;;4.80;3.30;;;13.60;99.90;;;;;;5073783;28;20086;-75
2021/09/26 08:10:17;;;;;;;6.53;3.90;;;13.60;99.90;;;;;;5073671;28;20024;-75
2021/09/26 08:12:44;;;;;;;4.88;3.45;;;13.50;99.90;;;;;;5073745;28;20021;-75
2021/09/26 08:15:12;;;;;;;4.68;3.60;;;13.50;99.90;;;;;;5073554;28;20045;-74
2021/09/26 08:17:39;;;;;;;5.88;3.50;;;13.50;99.90;;;;;;5074994;28;20393;-74
2021/09/26 08:20:07;;;;;;;4.60;3.20;;;13.50;99.90;;;;;;5075063;28;20016;-74
2021/09/26 08:22:35;;;;;;;4.28;3.85;;;13.40;99.90;;;;;;5073674;28;20486;-74
2021/09/26 08:25:03;;;;;;;4.63;3.30;;;13.50;99.90;;;;;;5074820;28;20146;-73
2021/09/26 08:27:31;;;;;;;8.23;4.00;;;13.50;99.90;;;;;;5073355;28;20078;-73
2021/09/26 08:29:58;;;;;;;4.72;4.07;;;13.40;99.90;;;;;;5074943;28;20579;-75
2021/09/26 08:32:26;;;;;;;7.18;4.57;;;13.30;99.90;;;;;;5074661;28;20024;-74
2021/09/26 08:34:53;;;;;;;7.55;5.10;;;13.30;99.90;;;;;;5073535;28;20078;-72
2021/09/26 08:37:20;;;;;;;5.47;4.30;;;13.20;99.90;;;;;;5074595;28;20016;-72
2021/09/26 08:39:48;;;;;;;9.73;4.30;;;13.20;99.90;;;;;;5073311;28;20115;-72
2021/09/26 08:42:16;;;;;;;6.82;4.30;;;13.10;99.90;;;;;;5074732;28;20032;-73
2021/09/26 08:44:43;;;;;;;4.47;4.05;;;13.00;99.90;;;;;;5074341;28;20021;-73
2021/09/26 08:47:11;;;;;;;8.20;4.95;;;12.90;99.90;;;;;;5074379;28;20024;-73
2021/09/26 08:49:38;;;;;;;8.35;5.00;;;12.90;99.90;;;;;;5074169;28;20024;-73
2021/09/26 08:52:06;;;;;;;6.68;5.95;;;12.80;99.90;;;;;;5072842;28;20484;-73
2021/09/26 08:54:34;;;;;;;6.25;4.63;;;12.80;99.90;;;;;;5074097;28;20096;-72
2021/09/26 08:57:01;;;;;;;9.77;5.85;;;12.80;99.90;;;;;;5073912;28;20030;-73
2021/09/26 08:59:28;;;;;;;8.27;4.25;;;12.80;99.90;;;;;;5072733;28;20020;-73
2021/09/26 09:01:56;;;;;;;3.95;3.65;;;12.90;99.90;;;;;;5073802;28;20020;-74
2021/09/26 09:04:49;;;;;;;5.80;3.53;;;13.00;99.90;;;;;;5073752;28;20587;-74
2021/09/26 09:07:16;;;;;;;5.43;4.45;;;13.00;99.90;;;;;;5072096;28;20039;-75
2021/09/26 09:09:57;;;;;;;5.32;3.50;;;13.10;99.90;;;;;;5073681;28;20051;-77
2021/09/26 09:12:31;;;;;;;6.10;3.70;;;13.10;99.90;;;;;;5073104;28;20112;-73
2021/09/26 09:15:07;;;;;;;5.20;4.30;;;13.20;99.90;;;;;;5073502;28;20385;-74
2021/09/26 09:17:40;;;;;;;4.90;3.83;;;13.20;99.90;;;;;;5073694;28;20048;-74
2021/09/26 09:20:16;;;;;;;3.70;3.40;;;13.30;99.90;;;;;;5073674;28;20021;-74
2021/09/26 09:22:46;;;;;;;3.63;3.15;;;13.30;99.90;;;;;;5073791;28;20074;-74
2021/09/26 09:25:40;;;;;;;3.70;3.40;;;13.30;99.90;;;;;;5073526;28;20017;-74
2021/09/26 09:28:14;;;;;;;5.28;4.22;;;13.30;99.90;;;;;;5067169;28;20028;-73
2021/09/26 09:31:02;;;;;;;5.50;3.88;;;13.20;99.90;;;;;;5073277;28;20048;-74
2021/09/26 09:33:55;;;;;;;5.78;5.05;;;13.20;99.90;;;;;;5073283;28;20113;-73
2021/09/26 09:36:29;;;;;;;4.93;4.40;;;13.10;99.90;;;;;;5071587;28;20112;-71
2021/09/26 09:39:02;;;;;;;6.32;4.38;;;13.10;99.90;;;;;;5071983;28;20021;-73
2021/09/26 09:41:41;;;;;;;6.47;4.65;;;13.00;99.90;;;;;;5073079;28;20500;-72
2021/09/26 09:44:12;;;;;;;6.38;5.20;;;12.90;99.90;;;;;;5073117;28;20020;-71
2021/09/26 09:46:40;;;;;;;;;;;12.90;99.90;;;;;;5072024;28;20033;-74
2021/09/26 09:49:22;;;;;;;5.55;4.70;;;12.90;99.90;;;;;;5071677;28;19911;-73
2021/09/26 09:51:52;;;;;;;4.97;4.40;;;12.90;99.90;;;;;;5072949;28;20095;-73
2021/09/26 09:54:32;;;;;;;5.82;5.05;;;12.80;99.90;;;;;;5073046;28;20016;-73
2021/09/26 09:57:10;;;;;;;;;;;12.80;99.90;;;;;;5073451;28;20393;-71
2021/09/26 09:59:38;;;;;;;5.88;4.90;;;12.70;99.90;;;;;;5073025;28;20284;-71
2021/09/26 10:02:05;;;;;;;5.20;4.70;;;12.60;99.90;;;;;;5071546;28;20115;-71
2021/09/26 10:04:44;;;;;;;5.47;4.97;;;12.60;99.90;;;;;;5073026;28;20024;-71
2021/09/26 10:07:21;;;;;;;4.95;4.45;;;12.60;99.90;;;;;;5073036;28;20025;-72
2021/09/26 10:09:49;;;;;;;5.10;4.70;;;12.60;99.90;;;;;;5073074;28;20103;-73
2021/09/26 10:12:23;;;;;;;5.45;5.00;;;12.60;99.90;;;;;;5071499;28;20032;-72
2021/09/26 10:14:58;;;;;;;5.45;4.90;;;12.50;99.90;;;;;;5072811;28;20017;-73
2021/09/26 10:17:27;;;;;;;5.97;5.40;;;12.30;99.90;;;;;;5072813;28;20028;-72
2021/09/26 10:19:55;;;;;;;5.20;4.78;;;12.30;99.90;;;;;;5072968;28;20043;-73
2021/09/26 10:22:24;;;;;;;9.02;5.30;;;12.00;99.90;;;;;;5073088;28;20056;-73
2021/09/26 10:24:54;;;;;;;7.55;5.60;;;12.00;99.90;;;;;;5078038;28;20029;-72
2021/09/26 10:27:23;;;;;;;6.05;5.22;;;11.90;99.90;;;;;;5077975;28;20476;-70
2021/09/26 10:29:59;;;;;;;6.20;5.70;;;11.80;99.90;;;;;;5079262;28;20074;-71
2021/09/26 10:32:26;;;;;;;6.78;6.03;;;11.80;99.90;;;;;;5079166;28;20032;-71
2021/09/26 10:34:54;;;;;;;6.63;6.05;;;11.80;99.90;;;;;;5079270;28;20090;-72
2021/09/26 10:37:23;;;;;;;8.45;6.32;;;11.70;99.90;;;;;;5079254;28;20349;-72
2021/09/26 10:39:51;;;;;;;6.50;5.97;;;11.70;99.90;;;;;;5079188;28;20381;-72
2021/09/26 10:42:26;;;;;;;6.75;6.22;;;11.60;99.90;;;;;;5079331;28;20476;-73
2021/09/26 10:45:02;;;;;;;6.93;6.28;;;11.60;99.90;;;;;;5079155;28;20058;-71
2021/09/26 10:47:34;;;;;;;7.30;6.60;;;11.60;99.90;;;;;;5079116;28;20032;-71
2021/09/26 10:50:02;;;;;;;8.00;7.43;;;11.60;99.90;;;;;;5078972;28;20155;-72
2021/09/26 10:52:34;;;;;;;8.20;7.45;;;11.50;99.90;;;;;;5077531;28;20115;-72
2021/09/26 10:55:17;;;;;;;7.68;7.28;;;11.50;99.90;;;;;;5079069;28;20094;-71
2021/09/26 10:57:46;;;;;;;8.35;7.60;;;11.50;99.90;;;;;;5079193;28;20021;-71
2021/09/26 11:00:37;;;;;;;8.48;7.68;;;11.60;99.90;;;;;;5079011;28;20055;-71
2021/09/26 11:03:12;;;;;;;8.02;7.40;;;11.50;99.90;;;;;;5066985;28;20111;-72
2021/09/26 11:05:49;;;;;;;9.13;7.93;;;11.50;99.90;;;;;;5078858;28;20025;-72
2021/09/26 11:08:36;;;;;;;7.50;6.80;;;11.50;99.90;;;;;;5077541;28;20024;-71
2021/09/26 11:11:04;;;;;;;7.38;6.68;;;11.40;99.90;;;;;;5078980;28;20028;-74
2021/09/26 11:13:38;;;;;;;9.60;7.85;;;11.40;99.90;;;;;;5078950;28;20016;-72
2021/09/26 11:16:18;;;;;;;8.52;7.10;;;11.30;99.90;;;;;;5077386;28;20497;-73
2021/09/26 11:18:51;;;;;;;7.65;6.90;;;11.20;99.90;;;;;;5078889;28;20024;-73
2021/09/26 11:21:40;;;;;;;6.97;6.47;;;11.30;99.90;;;;;;5078691;28;20016;-73
2021/09/26 11:24:09;;;;;;;6.95;6.38;;;11.20;99.90;;;;;;5078926;28;20025;-71
2021/09/26 11:26:58;;;;;;;8.65;6.40;;;11.20;99.90;;;;;;5078751;28;20029;-72
2021/09/26 11:29:27;;;;;;;11.13;7.43;;;11.10;99.90;;;;;;5078647;28;20025;-73
2021/09/26 11:31:54;;;;;;;8.10;7.07;;;11.10;99.90;;;;;;5078685;28;20035;-72
2021/09/26 11:34:43;;;;;;;7.60;7.05;;;11.20;99.90;;;;;;5077028;28;20024;-72
2021/09/26 11:37:12;;;;;;;7.60;7.00;;;11.20;99.90;;;;;;5075623;28;20025;-72
2021/09/26 11:39:42;;;;;;;7.93;7.22;;;11.30;99.90;;;;;;5075475;28;20024;-74
2021/09/26 11:42:40;;;;;;;7.50;6.80;;;11.40;99.90;;;;;;5075469;28;20021;-73
2021/09/26 11:45:15;;;;;;;7.35;6.68;;;11.40;99.90;;;;;;5075466;28;20052;-73
2021/09/26 11:47:43;;;;;;;7.40;6.80;;;11.60;99.90;;;;;;5075303;28;20508;-73
2021/09/26 11:50:15;;;;;;;7.68;7.05;;;11.60;99.90;;;;;;5075270;28;20021;-72
2021/09/26 11:52:44;;;;;;;7.70;7.20;;;11.80;99.90;;;;;;5074150;28;20020;-73
2021/09/26 11:55:17;;;;;;;8.95;8.05;;;11.90;99.90;;;;;;5075106;28;20145;-73
2021/09/26 11:57:53;;;;;;;8.23;7.60;;;11.90;99.90;;;;;;5075269;28;20485;-73
2021/09/26 12:00:26;;;;;;;7.70;7.20;;;12.00;99.90;;;;;;5073826;28;20115;-72
2021/09/26 12:02:53;;;;;;;8.27;7.50;;;12.10;99.90;;;;;;5074988;28;20012;-72
2021/09/26 12:05:35;;;;;;;7.68;7.00;;;12.10;99.90;;;;;;5075187;28;20432;-73
2021/09/26 12:08:03;;;;;;;7.68;6.88;;;12.20;99.90;;;;;;5074874;28;20016;-72
2021/09/26 12:10:31;;;;;;;9.52;6.70;;;12.30;99.90;;;;;;5074958;28;20024;-72
2021/09/26 12:12:59;;;;;;;7.20;6.45;;;12.30;99.90;;;;;;5075230;28;20095;-74
2021/09/26 12:15:28;;;;;;;8.27;6.78;;;12.30;99.90;;;;;;5074750;28;20048;-73
2021/09/26 12:17:57;;;;;;;7.13;6.43;;;12.30;99.90;;;;;;5074874;28;20469;-73
2021/09/26 12:20:26;;;;;;;6.88;6.28;;;12.30;99.90;;;;;;5074828;28;20154;-73
2021/09/26 12:23:02;;;;;;;7.07;6.50;;;12.30;99.90;;;;;;5074853;28;20020;-72
2021/09/26 12:25:40;;;;;;;6.97;6.57;;;12.30;99.90;;;;;;5074794;28;20024;-73
2021/09/26 12:28:16;;;;;;;9.32;7.07;;;12.30;99.90;;;;;;5074715;28;20013;-73
2021/09/26 12:30:49;;;;;;;6.68;6.10;;;12.30;99.90;;;;;;5074614;28;20024;-73
2021/09/26 12:33:41;;;;;;;8.05;7.30;;;12.20;99.90;;;;;;5074538;28;20052;-73
2021/09/26 12:36:14;;;;;;;8.30;7.60;;;12.20;99.90;;;;;;5074546;28;20422;-73
2021/09/26 12:38:48;;;;;;;7.90;7.20;;;12.10;99.90;;;;;;5074594;28;20358;-72
2021/09/26 12:41:31;;;;;;;7.60;7.05;;;12.10;99.90;;;;;;5074416;28;20530;-72
2021/09/26 12:44:02;;;;;;;7.53;6.68;;;12.00;99.90;;;;;;5074417;28;20021;-72
2021/09/26 12:46:45;;;;;;;8.40;7.60;;;11.90;99.90;;;;;;5072900;28;20078;-73
2021/09/26 12:49:19;;;;;;;7.70;7.10;;;12.00;99.90;;;;;;5072898;28;20021;-73
2021/09/26 12:51:57;;;;;;;8.27;7.60;;;11.90;99.90;;;;;;5074165;28;20489;-72
2021/09/26 12:54:28;;;;;;;8.10;7.57;;;11.90;99.90;;;;;;5074164;28;20412;-73
2021/09/26 12:57:01;;;;;;;7.78;7.18;;;11.90;99.90;;;;;;5074119;28;20025;-72
2021/09/26 12:59:31;;;;;;;7.60;7.00;;;11.90;99.90;;;;;;5072667;28;20390;-73
2021/09/26 13:02:12;;;;;;;7.43;6.97;;;11.90;99.90;;;;;;5072621;28;20021;-72
2021/09/26 13:04:43;;;;;;;7.28;6.88;;;11.80;99.90;;;;;;5073830;28;20062;-72
2021/09/26 13:07:23;;;;;;;7.10;6.65;;;11.80;99.90;;;;;;5073859;28;20016;-73